Aérodrome :
LOGIN :

S'inscrire | Disclaimer

   EN    FR    IT 

 










Légende :    VFR   VFR Marginal   IFR   IFR Intensif   IFR Très Intensif
Visi : 
Plafond : 
>= 8 km
>= 3000ft
5 à 8 km
1000 à 3000 ft
1500m à 5 km
500 à 1000 ft
800 à 1500m
200 à 500 ft
< 800m
< 200 ft
Symboles :   Orages  Brouillard  Fortes neiges  Fortes précipitations  Vent > 20 kt
SIGMETs :   Divers  Orages  Givrage  Turbulence  Onde Orograph.  Cendres Volcan.






- Altitude de l'aérodrome : 75 ft
- Code IATA : YEO


EGDY - RNAS Yeovilton

DERNIER METAR :
  • 021550Z 29017KT 9999 SCT028 SCT080 12/06 Q1016 NOSIG RMK BLU BLU

METARs EXPIRÉS :
  • 021519Z 29017KT 9999 SCT028 13/06 Q1016 NOSIG RMK BLU BLU
  • 021450Z 29019KT 9999 SCT026 13/06 Q1016 NOSIG RMK BLU BLU
  • 021420Z 29015KT 9999 SCT026 SCT046 12/06 Q1016 NOSIG RMK BLU BLU
  • 021350Z 29018KT 9999 FEW026 SCT046 12/06 Q1016 NOSIG RMK BLU BLU
  • 021320Z 29019KT 9999 FEW028 SCT046 13/06 Q1017 NOSIG RMK BLU BLU
  • 021250Z 30017KT 9999 FEW028 SCT046 12/05 Q1017 NOSIG RMK BLU BLU

TAF TAF EGDY
Valide du 02 à 15h jusqu'au 03 à 00h UTC


021344Z 0215/0224 31012G22KT 9999 FEW018 SCT035
PROB40
TEMPO 0215/0218 BKN018



MET'MAP, la Météo Aéronautique d'un coup d'oeil ! - Copyright ORBIFLY Décembre 2007 - Disclaimer

ORBIFLY MET'MAP TEAM :

Programmation & Développement : Alexandra Zaïnal
Sur une idée originale de : Baudouin d'Aumeries
Assistance à la programmation : Marc-Olivier Méhu
Soutien technique & logistique : Manuel Goepfert

Contact : metmap@orbifly.com




SOURCES & CREDITS :

   NOAA